sensor_id;sensor_type;location;lat;lon;timestamp;temperature;humidity
73121;DHT22;61307;49.628;-1.624;2024-01-10T00:02:06;18.90;29.90
73121;DHT22;61307;49.628;-1.624;2024-01-10T00:04:33;18.90;29.70
73121;DHT22;61307;49.628;-1.624;2024-01-10T00:07:01;18.90;29.90
73121;DHT22;61307;49.628;-1.624;2024-01-10T00:09:28;18.90;29.80
73121;DHT22;61307;49.628;-1.624;2024-01-10T00:11:55;18.90;29.80
73121;DHT22;61307;49.628;-1.624;2024-01-10T00:14:22;18.90;29.60
73121;DHT22;61307;49.628;-1.624;2024-01-10T00:16:49;18.90;29.70
73121;DHT22;61307;49.628;-1.624;2024-01-10T00:19:16;18.90;29.80
73121;DHT22;61307;49.628;-1.624;2024-01-10T00:21:43;18.90;29.70
73121;DHT22;61307;49.628;-1.624;2024-01-10T00:24:11;18.90;29.70
73121;DHT22;61307;49.628;-1.624;2024-01-10T00:26:38;18.90;29.60
73121;DHT22;61307;49.628;-1.624;2024-01-10T00:29:05;18.90;29.60
73121;DHT22;61307;49.628;-1.624;2024-01-10T00:31:33;18.90;29.60
73121;DHT22;61307;49.628;-1.624;2024-01-10T00:34:00;18.90;29.60
73121;DHT22;61307;49.628;-1.624;2024-01-10T00:36:26;19.00;29.60
73121;DHT22;61307;49.628;-1.624;2024-01-10T00:38:54;18.90;29.50
73121;DHT22;61307;49.628;-1.624;2024-01-10T00:41:22;19.00;29.50
73121;DHT22;61307;49.628;-1.624;2024-01-10T00:43:49;18.90;29.40
73121;DHT22;61307;49.628;-1.624;2024-01-10T00:46:16;18.90;29.40
73121;DHT22;61307;49.628;-1.624;2024-01-10T00:48:43;19.00;29.40
73121;DHT22;61307;49.628;-1.624;2024-01-10T00:51:10;19.00;29.40
73121;DHT22;61307;49.628;-1.624;2024-01-10T00:53:37;19.00;29.40
73121;DHT22;61307;49.628;-1.624;2024-01-10T00:56:06;19.00;29.30
73121;DHT22;61307;49.628;-1.624;2024-01-10T00:58:35;19.00;29.40
73121;DHT22;61307;49.628;-1.624;2024-01-10T01:01:02;19.00;29.30
73121;DHT22;61307;49.628;-1.624;2024-01-10T01:03:29;19.00;29.40
73121;DHT22;61307;49.628;-1.624;2024-01-10T01:05:56;19.00;29.30
73121;DHT22;61307;49.628;-1.624;2024-01-10T01:08:23;19.00;29.30
73121;DHT22;61307;49.628;-1.624;2024-01-10T01:10:50;19.00;29.30
73121;DHT22;61307;49.628;-1.624;2024-01-10T01:13:16;19.00;29.20
73121;DHT22;61307;49.628;-1.624;2024-01-10T01:15:45;19.00;29.20
73121;DHT22;61307;49.628;-1.624;2024-01-10T01:18:12;19.00;29.20
73121;DHT22;61307;49.628;-1.624;2024-01-10T01:20:39;19.00;29.20
73121;DHT22;61307;49.628;-1.624;2024-01-10T01:23:06;19.00;29.30
73121;DHT22;61307;49.628;-1.624;2024-01-10T01:25:33;19.00;29.60
73121;DHT22;61307;49.628;-1.624;2024-01-10T01:28:00;19.00;29.20
73121;DHT22;61307;49.628;-1.624;2024-01-10T01:30:26;19.00;29.10
73121;DHT22;61307;49.628;-1.624;2024-01-10T01:32:55;19.00;29.10
73121;DHT22;61307;49.628;-1.624;2024-01-10T01:35:22;19.10;29.10
73121;DHT22;61307;49.628;-1.624;2024-01-10T01:37:49;19.10;29.10
73121;DHT22;61307;49.628;-1.624;2024-01-10T01:40:18;19.10;29.00
73121;DHT22;61307;49.628;-1.624;2024-01-10T01:42:45;19.10;29.50
73121;DHT22;61307;49.628;-1.624;2024-01-10T01:45:13;19.10;29.10
73121;DHT22;61307;49.628;-1.624;2024-01-10T01:47:40;19.10;29.00
73121;DHT22;61307;49.628;-1.624;2024-01-10T01:50:08;19.10;29.00
73121;DHT22;61307;49.628;-1.624;2024-01-10T01:52:36;19.10;29.00
73121;DHT22;61307;49.628;-1.624;2024-01-10T01:55:05;19.10;29.00
73121;DHT22;61307;49.628;-1.624;2024-01-10T01:57:33;19.10;29.00
73121;DHT22;61307;49.628;-1.624;2024-01-10T02:00:00;19.10;28.80
73121;DHT22;61307;49.628;-1.624;2024-01-10T02:02:29;19.10;28.90
73121;DHT22;61307;49.628;-1.624;2024-01-10T02:04:57;19.10;28.80
73121;DHT22;61307;49.628;-1.624;2024-01-10T02:07:27;19.10;28.90
73121;DHT22;61307;49.628;-1.624;2024-01-10T02:09:53;19.10;28.60
73121;DHT22;61307;49.628;-1.624;2024-01-10T02:12:21;19.10;28.80
73121;DHT22;61307;49.628;-1.624;2024-01-10T02:14:48;19.10;28.70
73121;DHT22;61307;49.628;-1.624;2024-01-10T02:17:15;19.10;28.70
73121;DHT22;61307;49.628;-1.624;2024-01-10T02:19:42;19.10;28.70
73121;DHT22;61307;49.628;-1.624;2024-01-10T02:22:09;19.10;28.60
73121;DHT22;61307;49.628;-1.624;2024-01-10T02:24:38;19.10;28.70
73121;DHT22;61307;49.628;-1.624;2024-01-10T02:27:07;19.10;28.60
73121;DHT22;61307;49.628;-1.624;2024-01-10T02:29:34;19.10;28.60
73121;DHT22;61307;49.628;-1.624;2024-01-10T02:32:01;19.10;28.60
73121;DHT22;61307;49.628;-1.624;2024-01-10T02:34:30;19.10;28.60
73121;DHT22;61307;49.628;-1.624;2024-01-10T02:36:57;19.20;28.60
73121;DHT22;61307;49.628;-1.624;2024-01-10T02:39:23;19.10;28.50
73121;DHT22;61307;49.628;-1.624;2024-01-10T02:41:50;19.10;28.50
73121;DHT22;61307;49.628;-1.624;2024-01-10T02:44:18;19.10;28.60
73121;DHT22;61307;49.628;-1.624;2024-01-10T02:46:45;19.10;28.40
73121;DHT22;61307;49.628;-1.624;2024-01-10T02:49:12;19.20;28.60
73121;DHT22;61307;49.628;-1.624;2024-01-10T02:51:39;19.10;28.30
73121;DHT22;61307;49.628;-1.624;2024-01-10T02:54:06;19.20;28.30
73121;DHT22;61307;49.628;-1.624;2024-01-10T02:56:33;19.20;28.50
73121;DHT22;61307;49.628;-1.624;2024-01-10T02:59:00;19.20;28.30
73121;DHT22;61307;49.628;-1.624;2024-01-10T03:01:28;19.20;28.30
73121;DHT22;61307;49.628;-1.624;2024-01-10T03:03:55;19.10;28.20
73121;DHT22;61307;49.628;-1.624;2024-01-10T03:06:23;19.20;28.40
73121;DHT22;61307;49.628;-1.624;2024-01-10T03:08:50;19.20;28.30
73121;DHT22;61307;49.628;-1.624;2024-01-10T03:11:17;19.20;28.30
73121;DHT22;61307;49.628;-1.624;2024-01-10T03:13:44;19.20;28.30
73121;DHT22;61307;49.628;-1.624;2024-01-10T03:16:12;19.10;28.20
73121;DHT22;61307;49.628;-1.624;2024-01-10T03:18:41;19.20;28.30
73121;DHT22;61307;49.628;-1.624;2024-01-10T03:21:08;19.20;28.30
73121;DHT22;61307;49.628;-1.624;2024-01-10T03:23:34;19.20;28.30
73121;DHT22;61307;49.628;-1.624;2024-01-10T03:26:01;19.20;28.80
73121;DHT22;61307;49.628;-1.624;2024-01-10T03:28:28;19.20;28.20
73121;DHT22;61307;49.628;-1.624;2024-01-10T03:30:56;19.20;28.10
73121;DHT22;61307;49.628;-1.624;2024-01-10T03:33:23;19.20;28.10
73121;DHT22;61307;49.628;-1.624;2024-01-10T03:35:51;19.20;28.20
73121;DHT22;61307;49.628;-1.624;2024-01-10T03:38:18;19.30;28.20
73121;DHT22;61307;49.628;-1.624;2024-01-10T03:40:45;19.20;28.10
73121;DHT22;61307;49.628;-1.624;2024-01-10T03:43:12;19.20;28.10
73121;DHT22;61307;49.628;-1.624;2024-01-10T03:45:39;19.20;28.10
73121;DHT22;61307;49.628;-1.624;2024-01-10T03:48:07;19.20;28.60
73121;DHT22;61307;49.628;-1.624;2024-01-10T03:50:34;19.20;28.10
73121;DHT22;61307;49.628;-1.624;2024-01-10T03:53:02;19.20;28.00
73121;DHT22;61307;49.628;-1.624;2024-01-10T03:55:29;19.30;28.20
73121;DHT22;61307;49.628;-1.624;2024-01-10T03:57:56;19.20;28.00
73121;DHT22;61307;49.628;-1.624;2024-01-10T04:00:23;19.30;28.10
73121;DHT22;61307;49.628;-1.624;2024-01-10T04:02:51;19.30;28.10
73121;DHT22;61307;49.628;-1.624;2024-01-10T04:05:18;19.30;28.10
73121;DHT22;61307;49.628;-1.624;2024-01-10T04:07:46;19.30;28.10
73121;DHT22;61307;49.628;-1.624;2024-01-10T04:10:14;19.30;28.10
73121;DHT22;61307;49.628;-1.624;2024-01-10T04:12:41;19.30;28.00
73121;DHT22;61307;49.628;-1.624;2024-01-10T04:15:09;19.30;28.00
73121;DHT22;61307;49.628;-1.624;2024-01-10T04:17:36;19.30;28.00
73121;DHT22;61307;49.628;-1.624;2024-01-10T04:20:03;19.30;28.00
73121;DHT22;61307;49.628;-1.624;2024-01-10T04:22:31;19.30;28.10
73121;DHT22;61307;49.628;-1.624;2024-01-10T04:24:58;19.30;28.00
73121;DHT22;61307;49.628;-1.624;2024-01-10T04:27:27;19.30;28.00
73121;DHT22;61307;49.628;-1.624;2024-01-10T04:29:54;19.40;28.10
73121;DHT22;61307;49.628;-1.624;2024-01-10T04:32:21;19.30;27.90
73121;DHT22;61307;49.628;-1.624;2024-01-10T04:34:48;19.40;28.00
73121;DHT22;61307;49.628;-1.624;2024-01-10T04:37:15;19.30;27.90
73121;DHT22;61307;49.628;-1.624;2024-01-10T04:39:42;19.30;27.90
73121;DHT22;61307;49.628;-1.624;2024-01-10T04:42:10;19.30;27.90
73121;DHT22;61307;49.628;-1.624;2024-01-10T04:44:39;19.30;27.90
73121;DHT22;61307;49.628;-1.624;2024-01-10T04:47:06;19.30;27.90
73121;DHT22;61307;49.628;-1.624;2024-01-10T04:49:33;19.30;27.80
73121;DHT22;61307;49.628;-1.624;2024-01-10T04:52:01;19.40;27.90
73121;DHT22;61307;49.628;-1.624;2024-01-10T04:54:28;19.40;27.90
73121;DHT22;61307;49.628;-1.624;2024-01-10T04:56:54;19.40;27.90
73121;DHT22;61307;49.628;-1.624;2024-01-10T04:59:21;19.40;27.80
73121;DHT22;61307;49.628;-1.624;2024-01-10T05:01:50;19.40;27.90
73121;DHT22;61307;49.628;-1.624;2024-01-10T05:04:17;19.40;27.80
73121;DHT22;61307;49.628;-1.624;2024-01-10T05:06:44;19.40;27.80
73121;DHT22;61307;49.628;-1.624;2024-01-10T05:09:11;19.40;27.80
73121;DHT22;61307;49.628;-1.624;2024-01-10T05:11:38;19.40;27.90
73121;DHT22;61307;49.628;-1.624;2024-01-10T05:14:05;19.40;27.80
73121;DHT22;61307;49.628;-1.624;2024-01-10T05:16:32;19.50;27.90
73121;DHT22;61307;49.628;-1.624;2024-01-10T05:19:02;19.40;27.80
73121;DHT22;61307;49.628;-1.624;2024-01-10T05:21:29;19.50;27.80
73121;DHT22;61307;49.628;-1.624;2024-01-10T05:23:56;19.50;27.80
73121;DHT22;61307;49.628;-1.624;2024-01-10T05:26:23;19.50;27.80
73121;DHT22;61307;49.628;-1.624;2024-01-10T05:28:50;19.50;27.80
73121;DHT22;61307;49.628;-1.624;2024-01-10T05:31:17;19.50;27.80
73121;DHT22;61307;49.628;-1.624;2024-01-10T05:33:44;19.50;27.80
73121;DHT22;61307;49.628;-1.624;2024-01-10T05:36:12;19.40;27.70
73121;DHT22;61307;49.628;-1.624;2024-01-10T05:38:39;19.50;27.80
73121;DHT22;61307;49.628;-1.624;2024-01-10T05:41:07;19.40;27.80
73121;DHT22;61307;49.628;-1.624;2024-01-10T05:43:34;19.40;27.70
73121;DHT22;61307;49.628;-1.624;2024-01-10T05:46:00;19.50;27.80
73121;DHT22;61307;49.628;-1.624;2024-01-10T05:48:30;19.50;27.80
73121;DHT22;61307;49.628;-1.624;2024-01-10T05:50:57;19.50;27.70
73121;DHT22;61307;49.628;-1.624;2024-01-10T05:53:25;19.50;27.80
73121;DHT22;61307;49.628;-1.624;2024-01-10T05:55:53;19.50;27.60
73121;DHT22;61307;49.628;-1.624;2024-01-10T05:58:19;19.50;27.70
73121;DHT22;61307;49.628;-1.624;2024-01-10T06:00:47;19.50;27.70
73121;DHT22;61307;49.628;-1.624;2024-01-10T06:03:14;19.50;27.60
73121;DHT22;61307;49.628;-1.624;2024-01-10T06:05:41;19.60;27.80
73121;DHT22;61307;49.628;-1.624;2024-01-10T06:08:08;19.50;27.70
73121;DHT22;61307;49.628;-1.624;2024-01-10T06:10:36;19.60;27.70
73121;DHT22;61307;49.628;-1.624;2024-01-10T06:13:03;19.60;27.70
73121;DHT22;61307;49.628;-1.624;2024-01-10T06:15:30;19.50;27.60
73121;DHT22;61307;49.628;-1.624;2024-01-10T06:17:57;19.60;27.70
73121;DHT22;61307;49.628;-1.624;2024-01-10T06:20:24;19.60;27.80
73121;DHT22;61307;49.628;-1.624;2024-01-10T06:22:51;19.60;27.70
73121;DHT22;61307;49.628;-1.624;2024-01-10T06:25:18;19.60;27.60
73121;DHT22;61307;49.628;-1.624;2024-01-10T06:27:46;19.60;27.60
73121;DHT22;61307;49.628;-1.624;2024-01-10T06:30:13;19.60;27.70
73121;DHT22;61307;49.628;-1.624;2024-01-10T06:32:40;19.60;27.60
73121;DHT22;61307;49.628;-1.624;2024-01-10T06:35:07;19.60;27.70
73121;DHT22;61307;49.628;-1.624;2024-01-10T06:37:35;19.60;27.60
73121;DHT22;61307;49.628;-1.624;2024-01-10T06:40:02;19.60;27.50
73121;DHT22;61307;49.628;-1.624;2024-01-10T06:42:31;19.60;27.60
73121;DHT22;61307;49.628;-1.624;2024-01-10T06:45:00;19.60;27.70
73121;DHT22;61307;49.628;-1.624;2024-01-10T06:47:27;19.60;27.70
73121;DHT22;61307;49.628;-1.624;2024-01-10T06:49:54;19.60;27.70
73121;DHT22;61307;49.628;-1.624;2024-01-10T06:52:21;19.60;27.60
73121;DHT22;61307;49.628;-1.624;2024-01-10T06:54:48;19.60;27.60
73121;DHT22;61307;49.628;-1.624;2024-01-10T06:57:15;19.70;27.70
73121;DHT22;61307;49.628;-1.624;2024-01-10T06:59:42;19.60;27.50
73121;DHT22;61307;49.628;-1.624;2024-01-10T07:02:11;19.60;27.60
73121;DHT22;61307;49.628;-1.624;2024-01-10T07:04:38;19.60;27.60
73121;DHT22;61307;49.628;-1.624;2024-01-10T07:07:05;19.70;27.60
73121;DHT22;61307;49.628;-1.624;2024-01-10T07:09:34;19.60;27.60
73121;DHT22;61307;49.628;-1.624;2024-01-10T07:12:00;19.60;27.60
73121;DHT22;61307;49.628;-1.624;2024-01-10T07:14:29;19.60;27.50
73121;DHT22;61307;49.628;-1.624;2024-01-10T07:16:56;19.70;28.20
73121;DHT22;61307;49.628;-1.624;2024-01-10T07:19:25;19.70;27.70
73121;DHT22;61307;49.628;-1.624;2024-01-10T07:21:52;19.70;27.70
73121;DHT22;61307;49.628;-1.624;2024-01-10T07:24:19;19.70;27.70
73121;DHT22;61307;49.628;-1.624;2024-01-10T07:26:46;19.70;27.60
73121;DHT22;61307;49.628;-1.624;2024-01-10T07:29:13;19.70;28.20
73121;DHT22;61307;49.628;-1.624;2024-01-10T07:31:40;19.70;27.60
73121;DHT22;61307;49.628;-1.624;2024-01-10T07:34:07;19.70;27.60
73121;DHT22;61307;49.628;-1.624;2024-01-10T07:36:41;19.70;28.20
73121;DHT22;61307;49.628;-1.624;2024-01-10T07:39:08;19.70;27.60
73121;DHT22;61307;49.628;-1.624;2024-01-10T07:41:35;19.70;27.60
73121;DHT22;61307;49.628;-1.624;2024-01-10T07:44:02;19.70;27.60
73121;DHT22;61307;49.628;-1.624;2024-01-10T07:46:29;19.70;27.60
73121;DHT22;61307;49.628;-1.624;2024-01-10T07:48:56;19.70;28.10
73121;DHT22;61307;49.628;-1.624;2024-01-10T07:51:23;19.70;27.50
73121;DHT22;61307;49.628;-1.624;2024-01-10T07:53:51;19.70;27.60
73121;DHT22;61307;49.628;-1.624;2024-01-10T07:56:18;19.70;27.50
73121;DHT22;61307;49.628;-1.624;2024-01-10T07:58:45;19.80;27.70
73121;DHT22;61307;49.628;-1.624;2024-01-10T08:01:12;19.70;27.70
73121;DHT22;61307;49.628;-1.624;2024-01-10T08:03:39;19.70;27.80
73121;DHT22;61307;49.628;-1.624;2024-01-10T08:06:06;19.70;27.80
73121;DHT22;61307;49.628;-1.624;2024-01-10T08:08:34;19.70;27.80
73121;DHT22;61307;49.628;-1.624;2024-01-10T08:11:02;19.80;27.80
73121;DHT22;61307;49.628;-1.624;2024-01-10T08:13:29;19.80;27.80
73121;DHT22;61307;49.628;-1.624;2024-01-10T08:15:56;19.80;27.80
73121;DHT22;61307;49.628;-1.624;2024-01-10T08:18:23;19.80;27.80
73121;DHT22;61307;49.628;-1.624;2024-01-10T08:20:50;19.90;28.00
73121;DHT22;61307;49.628;-1.624;2024-01-10T08:23:19;19.90;28.00
73121;DHT22;61307;49.628;-1.624;2024-01-10T08:25:50;19.90;28.40
73121;DHT22;61307;49.628;-1.624;2024-01-10T08:28:29;19.90;28.50
73121;DHT22;61307;49.628;-1.624;2024-01-10T08:30:58;19.90;28.50
73121;DHT22;61307;49.628;-1.624;2024-01-10T08:36:22;20.00;28.60
73121;DHT22;61307;49.628;-1.624;2024-01-10T08:38:53;20.00;28.70
73121;DHT22;61307;49.628;-1.624;2024-01-10T08:41:21;20.00;28.80
73121;DHT22;61307;49.628;-1.624;2024-01-10T08:44:06;20.00;28.80
73121;DHT22;61307;49.628;-1.624;2024-01-10T08:46:40;20.10;28.80
73121;DHT22;61307;49.628;-1.624;2024-01-10T08:49:11;20.10;28.80
73121;DHT22;61307;49.628;-1.624;2024-01-10T08:51:39;20.20;28.80
73121;DHT22;61307;49.628;-1.624;2024-01-10T08:54:25;20.30;28.90
73121;DHT22;61307;49.628;-1.624;2024-01-10T08:56:55;20.30;29.00
73121;DHT22;61307;49.628;-1.624;2024-01-10T08:59:32;20.30;29.00
73121;DHT22;61307;49.628;-1.624;2024-01-10T09:02:03;20.40;29.20
73121;DHT22;61307;49.628;-1.624;2024-01-10T09:04:35;20.40;29.10
73121;DHT22;61307;49.628;-1.624;2024-01-10T09:07:09;20.40;29.10
73121;DHT22;61307;49.628;-1.624;2024-01-10T09:09:37;20.40;29.10
73121;DHT22;61307;49.628;-1.624;2024-01-10T09:12:09;20.50;29.20
73121;DHT22;61307;49.628;-1.624;2024-01-10T09:14:48;20.50;29.20
73121;DHT22;61307;49.628;-1.624;2024-01-10T09:17:17;20.50;29.20
73121;DHT22;61307;49.628;-1.624;2024-01-10T09:19:45;20.50;29.20
73121;DHT22;61307;49.628;-1.624;2024-01-10T09:22:23;20.50;29.90
73121;DHT22;61307;49.628;-1.624;2024-01-10T09:24:53;20.50;29.50
73121;DHT22;61307;49.628;-1.624;2024-01-10T09:27:21;20.60;29.40
73121;DHT22;61307;49.628;-1.624;2024-01-10T09:29:53;20.60;29.50
73121;DHT22;61307;49.628;-1.624;2024-01-10T09:32:20;20.50;29.40
73121;DHT22;61307;49.628;-1.624;2024-01-10T09:34:49;20.60;29.40
73121;DHT22;61307;49.628;-1.624;2024-01-10T09:37:27;20.60;29.40
73121;DHT22;61307;49.628;-1.624;2024-01-10T09:40:01;20.60;29.40
73121;DHT22;61307;49.628;-1.624;2024-01-10T09:42:30;20.60;29.40
73121;DHT22;61307;49.628;-1.624;2024-01-10T09:45:13;20.60;29.50
73121;DHT22;61307;49.628;-1.624;2024-01-10T09:47:48;20.60;29.70
73121;DHT22;61307;49.628;-1.624;2024-01-10T09:50:32;20.70;29.80
73121;DHT22;61307;49.628;-1.624;2024-01-10T09:53:06;20.70;29.90
73121;DHT22;61307;49.628;-1.624;2024-01-10T09:55:38;20.70;30.00
73121;DHT22;61307;49.628;-1.624;2024-01-10T09:58:08;20.70;30.00
73121;DHT22;61307;49.628;-1.624;2024-01-10T10:00:41;20.70;30.00
73121;DHT22;61307;49.628;-1.624;2024-01-10T10:03:12;20.70;30.00
73121;DHT22;61307;49.628;-1.624;2024-01-10T10:05:50;20.80;30.30
73121;DHT22;61307;49.628;-1.624;2024-01-10T10:08:21;20.80;30.60
73121;DHT22;61307;49.628;-1.624;2024-01-10T10:10:53;20.80;30.70
73121;DHT22;61307;49.628;-1.624;2024-01-10T10:13:26;20.80;30.50
73121;DHT22;61307;49.628;-1.624;2024-01-10T10:16:03;20.90;30.80
73121;DHT22;61307;49.628;-1.624;2024-01-10T10:18:32;20.80;30.90
73121;DHT22;61307;49.628;-1.624;2024-01-10T10:21:10;20.90;31.00
73121;DHT22;61307;49.628;-1.624;2024-01-10T10:23:57;20.90;31.00
73121;DHT22;61307;49.628;-1.624;2024-01-10T10:26:31;20.90;30.80
73121;DHT22;61307;49.628;-1.624;2024-01-10T10:29:17;20.90;30.80
73121;DHT22;61307;49.628;-1.624;2024-01-10T10:31:50;20.90;30.60
73121;DHT22;61307;49.628;-1.624;2024-01-10T10:34:22;20.90;30.50
73121;DHT22;61307;49.628;-1.624;2024-01-10T10:36:54;20.90;30.40
73121;DHT22;61307;49.628;-1.624;2024-01-10T10:39:21;20.90;30.10
73121;DHT22;61307;49.628;-1.624;2024-01-10T10:41:56;20.90;30.00
73121;DHT22;61307;49.628;-1.624;2024-01-10T10:44:25;20.80;29.90
73121;DHT22;61307;49.628;-1.624;2024-01-10T10:47:04;20.70;29.70
73121;DHT22;61307;49.628;-1.624;2024-01-10T10:49:36;20.60;29.50
73121;DHT22;61307;49.628;-1.624;2024-01-10T10:52:12;20.60;29.40
73121;DHT22;61307;49.628;-1.624;2024-01-10T10:54:40;20.50;29.30
73121;DHT22;61307;49.628;-1.624;2024-01-10T10:57:21;20.50;29.10
73121;DHT22;61307;49.628;-1.624;2024-01-10T10:59:49;20.40;29.10
73121;DHT22;61307;49.628;-1.624;2024-01-10T11:02:21;20.40;29.10
73121;DHT22;61307;49.628;-1.624;2024-01-10T11:04:49;20.30;29.30
73121;DHT22;61307;49.628;-1.624;2024-01-10T11:07:16;20.30;29.30
73121;DHT22;61307;49.628;-1.624;2024-01-10T11:09:46;20.30;29.20
73121;DHT22;61307;49.628;-1.624;2024-01-10T11:12:26;20.30;29.20
73121;DHT22;61307;49.628;-1.624;2024-01-10T11:15:07;20.30;29.10
73121;DHT22;61307;49.628;-1.624;2024-01-10T11:17:50;20.30;29.00
73121;DHT22;61307;49.628;-1.624;2024-01-10T11:20:46;20.30;29.00
73121;DHT22;61307;49.628;-1.624;2024-01-10T11:23:37;20.20;28.80
73121;DHT22;61307;49.628;-1.624;2024-01-10T11:26:19;20.20;28.80
73121;DHT22;61307;49.628;-1.624;2024-01-10T11:28:52;20.20;28.90
73121;DHT22;61307;49.628;-1.624;2024-01-10T11:31:30;20.10;28.80
73121;DHT22;61307;49.628;-1.624;2024-01-10T11:34:03;20.10;29.20
73121;DHT22;61307;49.628;-1.624;2024-01-10T11:37:11;20.10;28.60
73121;DHT22;61307;49.628;-1.624;2024-01-10T11:39:45;20.10;28.60
73121;DHT22;61307;49.628;-1.624;2024-01-10T11:42:22;20.10;28.60
73121;DHT22;61307;49.628;-1.624;2024-01-10T11:45:01;20.10;28.60
73121;DHT22;61307;49.628;-1.624;2024-01-10T11:47:33;20.10;28.60
73121;DHT22;61307;49.628;-1.624;2024-01-10T11:50:19;20.10;28.60
73121;DHT22;61307;49.628;-1.624;2024-01-10T11:52:53;20.10;28.50
73121;DHT22;61307;49.628;-1.624;2024-01-10T11:55:52;20.10;28.40
73121;DHT22;61307;49.628;-1.624;2024-01-10T11:58:23;20.10;28.50
73121;DHT22;61307;49.628;-1.624;2024-01-10T12:00:53;20.10;28.50
73121;DHT22;61307;49.628;-1.624;2024-01-10T12:03:28;20.10;28.50
73121;DHT22;61307;49.628;-1.624;2024-01-10T12:06:00;20.10;28.40
73121;DHT22;61307;49.628;-1.624;2024-01-10T12:08:27;20.10;28.50
73121;DHT22;61307;49.628;-1.624;2024-01-10T12:10:58;20.10;28.40
73121;DHT22;61307;49.628;-1.624;2024-01-10T12:13:27;20.10;28.40
73121;DHT22;61307;49.628;-1.624;2024-01-10T12:15:58;20.10;28.40
73121;DHT22;61307;49.628;-1.624;2024-01-10T12:18:29;20.10;28.30
73121;DHT22;61307;49.628;-1.624;2024-01-10T12:21:15;20.10;28.30
73121;DHT22;61307;49.628;-1.624;2024-01-10T12:23:44;20.10;28.30
73121;DHT22;61307;49.628;-1.624;2024-01-10T12:26:15;20.20;28.40
73121;DHT22;61307;49.628;-1.624;2024-01-10T12:28:54;20.10;28.30
73121;DHT22;61307;49.628;-1.624;2024-01-10T12:31:23;20.10;28.30
73121;DHT22;61307;49.628;-1.624;2024-01-10T12:33:56;20.10;28.30
73121;DHT22;61307;49.628;-1.624;2024-01-10T12:36:41;20.20;28.30
73121;DHT22;61307;49.628;-1.624;2024-01-10T12:39:09;20.10;28.20
73121;DHT22;61307;49.628;-1.624;2024-01-10T12:41:44;20.20;28.20
73121;DHT22;61307;49.628;-1.624;2024-01-10T12:44:17;20.20;28.20
73121;DHT22;61307;49.628;-1.624;2024-01-10T12:46:51;20.20;28.30
73121;DHT22;61307;49.628;-1.624;2024-01-10T12:49:19;20.20;28.30
73121;DHT22;61307;49.628;-1.624;2024-01-10T12:51:54;20.20;28.20
73121;DHT22;61307;49.628;-1.624;2024-01-10T12:54:21;20.20;28.20
73121;DHT22;61307;49.628;-1.624;2024-01-10T12:56:52;20.20;28.40
73121;DHT22;61307;49.628;-1.624;2024-01-10T12:59:24;20.20;28.80
73121;DHT22;61307;49.628;-1.624;2024-01-10T13:01:55;20.20;28.40
73121;DHT22;61307;49.628;-1.624;2024-01-10T13:04:30;20.30;28.60
73121;DHT22;61307;49.628;-1.624;2024-01-10T13:07:10;20.20;28.50
73121;DHT22;61307;49.628;-1.624;2024-01-10T13:09:38;20.20;28.40
73121;DHT22;61307;49.628;-1.624;2024-01-10T13:12:08;20.20;28.30
73121;DHT22;61307;49.628;-1.624;2024-01-10T13:14:38;20.20;28.20
73121;DHT22;61307;49.628;-1.624;2024-01-10T13:17:07;20.20;28.10
73121;DHT22;61307;49.628;-1.624;2024-01-10T13:19:35;20.20;28.10
73121;DHT22;61307;49.628;-1.624;2024-01-10T13:22:05;20.20;28.10
73121;DHT22;61307;49.628;-1.624;2024-01-10T13:24:37;20.30;28.20
73121;DHT22;61307;49.628;-1.624;2024-01-10T13:27:09;20.30;28.30
73121;DHT22;61307;49.628;-1.624;2024-01-10T13:29:41;20.20;28.20
73121;DHT22;61307;49.628;-1.624;2024-01-10T13:32:12;20.20;28.10
73121;DHT22;61307;49.628;-1.624;2024-01-10T13:34:43;20.30;28.20
73121;DHT22;61307;49.628;-1.624;2024-01-10T13:37:16;20.30;28.10
73121;DHT22;61307;49.628;-1.624;2024-01-10T13:39:46;20.20;28.00
73121;DHT22;61307;49.628;-1.624;2024-01-10T13:42:14;20.30;28.00
73121;DHT22;61307;49.628;-1.624;2024-01-10T13:44:44;20.30;27.90
73121;DHT22;61307;49.628;-1.624;2024-01-10T13:47:15;20.20;28.00
73121;DHT22;61307;49.628;-1.624;2024-01-10T13:49:46;20.30;28.10
73121;DHT22;61307;49.628;-1.624;2024-01-10T13:52:15;20.30;28.10
73121;DHT22;61307;49.628;-1.624;2024-01-10T13:54:53;20.30;28.20
73121;DHT22;61307;49.628;-1.624;2024-01-10T13:57:21;20.30;28.30
73121;DHT22;61307;49.628;-1.624;2024-01-10T13:59:48;20.30;28.10
73121;DHT22;61307;49.628;-1.624;2024-01-10T14:02:21;20.30;28.10
73121;DHT22;61307;49.628;-1.624;2024-01-10T14:04:48;20.30;28.70
73121;DHT22;61307;49.628;-1.624;2024-01-10T14:07:17;20.30;28.10
73121;DHT22;61307;49.628;-1.624;2024-01-10T14:09:44;20.30;28.10
73121;DHT22;61307;49.628;-1.624;2024-01-10T14:12:11;20.20;28.20
73121;DHT22;61307;49.628;-1.624;2024-01-10T14:14:38;20.30;28.40
73121;DHT22;61307;49.628;-1.624;2024-01-10T14:17:06;20.20;28.50
73121;DHT22;61307;49.628;-1.624;2024-01-10T14:19:34;20.30;28.50
73121;DHT22;61307;49.628;-1.624;2024-01-10T14:22:01;20.30;28.50
73121;DHT22;61307;49.628;-1.624;2024-01-10T14:24:32;20.30;28.40
73121;DHT22;61307;49.628;-1.624;2024-01-10T14:26:59;20.40;28.50
73121;DHT22;61307;49.628;-1.624;2024-01-10T14:29:26;20.40;28.30
73121;DHT22;61307;49.628;-1.624;2024-01-10T14:31:55;20.40;28.20
73121;DHT22;61307;49.628;-1.624;2024-01-10T14:34:22;20.40;28.20
73121;DHT22;61307;49.628;-1.624;2024-01-10T14:36:49;20.40;28.20
73121;DHT22;61307;49.628;-1.624;2024-01-10T14:39:16;20.40;28.20
73121;DHT22;61307;49.628;-1.624;2024-01-10T14:41:46;20.40;28.10
73121;DHT22;61307;49.628;-1.624;2024-01-10T14:44:15;20.40;28.00
73121;DHT22;61307;49.628;-1.624;2024-01-10T14:46:42;20.40;28.20
73121;DHT22;61307;49.628;-1.624;2024-01-10T14:49:13;20.40;28.10
73121;DHT22;61307;49.628;-1.624;2024-01-10T14:51:40;20.40;28.10
73121;DHT22;61307;49.628;-1.624;2024-01-10T14:54:07;20.40;28.00
73121;DHT22;61307;49.628;-1.624;2024-01-10T14:56:34;20.40;27.90
73121;DHT22;61307;49.628;-1.624;2024-01-10T14:59:02;20.40;27.80
73121;DHT22;61307;49.628;-1.624;2024-01-10T15:01:29;20.30;27.90
73121;DHT22;61307;49.628;-1.624;2024-01-10T15:03:56;20.30;27.90
73121;DHT22;61307;49.628;-1.624;2024-01-10T15:06:23;20.30;27.80
73121;DHT22;61307;49.628;-1.624;2024-01-10T15:08:50;20.30;28.00
73121;DHT22;61307;49.628;-1.624;2024-01-10T15:11:17;20.30;27.90
73121;DHT22;61307;49.628;-1.624;2024-01-10T15:13:47;20.30;27.90
73121;DHT22;61307;49.628;-1.624;2024-01-10T15:16:15;20.30;27.90
73121;DHT22;61307;49.628;-1.624;2024-01-10T15:18:42;20.30;27.90
73121;DHT22;61307;49.628;-1.624;2024-01-10T15:21:12;20.30;28.00
73121;DHT22;61307;49.628;-1.624;2024-01-10T15:23:39;20.30;28.00
73121;DHT22;61307;49.628;-1.624;2024-01-10T15:26:07;20.30;28.00
73121;DHT22;61307;49.628;-1.624;2024-01-10T15:28:34;20.30;28.00
73121;DHT22;61307;49.628;-1.624;2024-01-10T15:31:03;20.30;28.00
73121;DHT22;61307;49.628;-1.624;2024-01-10T15:33:31;20.30;27.90